Freeman, Missouri
Current Conditions -  °F | °C
As of 12:53 AM on Thursday 23 Oct 2014 (Local Time) from KOJC Reporting Station
Clear Clear  
Wind Chill: 60°   Ceiling: Unl
Heat Index: 60°   Visibility: 10mi
Dew Point: 52°   Wind: 10mph
Humidity: 75%   Direction: 170°S
Pressure: 30.1"   Gusts: NA
Location:  38.62°N, 94.51°W
Report Text: KOJC 230553Z AUTO 17009KT 10SM CLR 16/11 A3010 RMK AO2 SLP187 T01560111 10189 20150 402220117 58004
Loading
Personal Weather Stations






























Interactive Weather Map
Tropical Storm Tracking
New forecast layout! Learn more

10-Day Weather Forecast

Advertisements
Track Severe Weather on mobile